sensor_id;sensor_type;location;lat;lon;timestamp;P1;durP1;ratioP1;P2;durP2;ratioP2
12892;SDS011;6514;48.606;9.222;2023-05-29T00:00:58;6.13;;;4.20;;
12892;SDS011;6514;48.606;9.222;2023-05-29T00:03:26;6.97;;;4.50;;
12892;SDS011;6514;48.606;9.222;2023-05-29T00:05:53;7.07;;;4.30;;
12892;SDS011;6514;48.606;9.222;2023-05-29T00:08:20;6.03;;;3.87;;
12892;SDS011;6514;48.606;9.222;2023-05-29T00:10:47;6.50;;;4.07;;
12892;SDS011;6514;48.606;9.222;2023-05-29T00:13:14;7.10;;;4.00;;
12892;SDS011;6514;48.606;9.222;2023-05-29T00:15:41;7.33;;;4.20;;
12892;SDS011;6514;48.606;9.222;2023-05-29T00:18:09;6.93;;;4.20;;
12892;SDS011;6514;48.606;9.222;2023-05-29T00:20:36;6.20;;;4.90;;
12892;SDS011;6514;48.606;9.222;2023-05-29T00:23:03;5.90;;;4.07;;
12892;SDS011;6514;48.606;9.222;2023-05-29T00:25:31;7.27;;;4.50;;
12892;SDS011;6514;48.606;9.222;2023-05-29T00:27:58;7.47;;;4.17;;
12892;SDS011;6514;48.606;9.222;2023-05-29T00:30:25;6.60;;;4.40;;
12892;SDS011;6514;48.606;9.222;2023-05-29T00:32:52;7.13;;;4.13;;
12892;SDS011;6514;48.606;9.222;2023-05-29T00:35:20;7.13;;;4.10;;
12892;SDS011;6514;48.606;9.222;2023-05-29T00:37:47;6.43;;;4.37;;
12892;SDS011;6514;48.606;9.222;2023-05-29T00:40:14;5.57;;;4.50;;
12892;SDS011;6514;48.606;9.222;2023-05-29T00:42:41;9.43;;;4.53;;
12892;SDS011;6514;48.606;9.222;2023-05-29T00:45:08;8.80;;;4.43;;
12892;SDS011;6514;48.606;9.222;2023-05-29T00:47:35;6.77;;;4.40;;
12892;SDS011;6514;48.606;9.222;2023-05-29T00:50:03;6.80;;;4.20;;
12892;SDS011;6514;48.606;9.222;2023-05-29T00:52:32;7.93;;;4.63;;
12892;SDS011;6514;48.606;9.222;2023-05-29T00:54:59;7.73;;;4.70;;
12892;SDS011;6514;48.606;9.222;2023-05-29T00:57:27;8.57;;;4.83;;
12892;SDS011;6514;48.606;9.222;2023-05-29T00:59:54;7.17;;;4.27;;
12892;SDS011;6514;48.606;9.222;2023-05-29T01:02:22;6.87;;;4.87;;
12892;SDS011;6514;48.606;9.222;2023-05-29T01:04:49;7.10;;;4.50;;
12892;SDS011;6514;48.606;9.222;2023-05-29T01:07:19;6.50;;;4.30;;
12892;SDS011;6514;48.606;9.222;2023-05-29T01:09:47;6.80;;;4.83;;
12892;SDS011;6514;48.606;9.222;2023-05-29T01:12:16;10.77;;;5.10;;
12892;SDS011;6514;48.606;9.222;2023-05-29T01:14:57;6.00;;;4.20;;
12892;SDS011;6514;48.606;9.222;2023-05-29T01:17:37;6.80;;;4.50;;
12892;SDS011;6514;48.606;9.222;2023-05-29T01:20:17;8.43;;;4.27;;
12892;SDS011;6514;48.606;9.222;2023-05-29T01:23:02;6.13;;;4.17;;
12892;SDS011;6514;48.606;9.222;2023-05-29T01:25:39;6.23;;;4.33;;
12892;SDS011;6514;48.606;9.222;2023-05-29T01:28:19;7.53;;;3.80;;
12892;SDS011;6514;48.606;9.222;2023-05-29T01:30:48;8.33;;;4.67;;
12892;SDS011;6514;48.606;9.222;2023-05-29T01:33:16;6.33;;;4.37;;
12892;SDS011;6514;48.606;9.222;2023-05-29T01:35:43;8.83;;;4.40;;
12892;SDS011;6514;48.606;9.222;2023-05-29T01:38:10;6.80;;;4.47;;
12892;SDS011;6514;48.606;9.222;2023-05-29T01:40:37;5.80;;;3.60;;
12892;SDS011;6514;48.606;9.222;2023-05-29T01:43:04;4.90;;;4.03;;
12892;SDS011;6514;48.606;9.222;2023-05-29T01:45:33;6.80;;;4.70;;
12892;SDS011;6514;48.606;9.222;2023-05-29T01:48:01;5.53;;;4.43;;
12892;SDS011;6514;48.606;9.222;2023-05-29T01:50:28;7.23;;;4.30;;
12892;SDS011;6514;48.606;9.222;2023-05-29T01:52:56;8.10;;;4.63;;
12892;SDS011;6514;48.606;9.222;2023-05-29T01:55:23;6.50;;;4.30;;
12892;SDS011;6514;48.606;9.222;2023-05-29T01:57:50;7.30;;;4.57;;
12892;SDS011;6514;48.606;9.222;2023-05-29T02:00:18;4.63;;;4.03;;
12892;SDS011;6514;48.606;9.222;2023-05-29T02:02:46;7.07;;;4.37;;
12892;SDS011;6514;48.606;9.222;2023-05-29T02:05:13;7.27;;;4.33;;
12892;SDS011;6514;48.606;9.222;2023-05-29T02:07:40;6.70;;;4.10;;
12892;SDS011;6514;48.606;9.222;2023-05-29T02:10:08;10.63;;;4.23;;
12892;SDS011;6514;48.606;9.222;2023-05-29T02:12:35;6.27;;;4.17;;
12892;SDS011;6514;48.606;9.222;2023-05-29T02:15:02;5.97;;;4.20;;
12892;SDS011;6514;48.606;9.222;2023-05-29T02:17:30;8.87;;;4.93;;
12892;SDS011;6514;48.606;9.222;2023-05-29T02:19:58;7.03;;;5.10;;
12892;SDS011;6514;48.606;9.222;2023-05-29T02:22:25;6.60;;;4.87;;
12892;SDS011;6514;48.606;9.222;2023-05-29T02:24:52;5.30;;;4.80;;
12892;SDS011;6514;48.606;9.222;2023-05-29T02:27:19;7.33;;;4.70;;
12892;SDS011;6514;48.606;9.222;2023-05-29T02:29:46;6.00;;;4.83;;
12892;SDS011;6514;48.606;9.222;2023-05-29T02:32:13;5.67;;;4.60;;
12892;SDS011;6514;48.606;9.222;2023-05-29T02:34:40;7.93;;;5.00;;
12892;SDS011;6514;48.606;9.222;2023-05-29T02:37:08;7.87;;;4.50;;
12892;SDS011;6514;48.606;9.222;2023-05-29T02:39:35;6.10;;;4.17;;
12892;SDS011;6514;48.606;9.222;2023-05-29T02:42:02;7.73;;;4.63;;
12892;SDS011;6514;48.606;9.222;2023-05-29T02:44:29;7.13;;;4.63;;
12892;SDS011;6514;48.606;9.222;2023-05-29T02:46:56;6.13;;;4.60;;
12892;SDS011;6514;48.606;9.222;2023-05-29T02:49:22;8.43;;;4.47;;
12892;SDS011;6514;48.606;9.222;2023-05-29T02:51:49;6.47;;;4.30;;
12892;SDS011;6514;48.606;9.222;2023-05-29T02:54:22;10.17;;;5.00;;
12892;SDS011;6514;48.606;9.222;2023-05-29T02:56:50;9.03;;;4.10;;
12892;SDS011;6514;48.606;9.222;2023-05-29T02:59:17;8.17;;;4.70;;
12892;SDS011;6514;48.606;9.222;2023-05-29T03:01:44;7.13;;;4.90;;
12892;SDS011;6514;48.606;9.222;2023-05-29T03:04:12;6.33;;;4.17;;
12892;SDS011;6514;48.606;9.222;2023-05-29T03:06:39;5.20;;;4.17;;
12892;SDS011;6514;48.606;9.222;2023-05-29T03:09:06;6.20;;;4.40;;
12892;SDS011;6514;48.606;9.222;2023-05-29T03:11:34;6.77;;;4.40;;
12892;SDS011;6514;48.606;9.222;2023-05-29T03:14:03;6.83;;;4.70;;
12892;SDS011;6514;48.606;9.222;2023-05-29T03:16:29;6.70;;;4.30;;
12892;SDS011;6514;48.606;9.222;2023-05-29T03:18:56;6.03;;;4.07;;
12892;SDS011;6514;48.606;9.222;2023-05-29T03:21:23;7.03;;;4.43;;
12892;SDS011;6514;48.606;9.222;2023-05-29T03:23:51;5.40;;;4.50;;
12892;SDS011;6514;48.606;9.222;2023-05-29T03:26:17;5.47;;;4.40;;
12892;SDS011;6514;48.606;9.222;2023-05-29T03:28:46;7.50;;;4.93;;
12892;SDS011;6514;48.606;9.222;2023-05-29T03:31:13;6.47;;;4.37;;
12892;SDS011;6514;48.606;9.222;2023-05-29T03:33:39;7.30;;;4.73;;
12892;SDS011;6514;48.606;9.222;2023-05-29T03:36:06;6.43;;;4.73;;
12892;SDS011;6514;48.606;9.222;2023-05-29T03:38:34;10.17;;;5.07;;
12892;SDS011;6514;48.606;9.222;2023-05-29T03:41:00;8.60;;;4.90;;
12892;SDS011;6514;48.606;9.222;2023-05-29T03:43:27;7.77;;;4.87;;
12892;SDS011;6514;48.606;9.222;2023-05-29T03:45:55;8.60;;;5.53;;
12892;SDS011;6514;48.606;9.222;2023-05-29T03:48:22;8.10;;;5.30;;
12892;SDS011;6514;48.606;9.222;2023-05-29T03:50:49;10.03;;;5.37;;
12892;SDS011;6514;48.606;9.222;2023-05-29T03:53:16;8.67;;;4.60;;
12892;SDS011;6514;48.606;9.222;2023-05-29T03:55:43;11.90;;;4.93;;
12892;SDS011;6514;48.606;9.222;2023-05-29T03:58:10;9.30;;;5.40;;
12892;SDS011;6514;48.606;9.222;2023-05-29T04:00:38;9.90;;;5.13;;
12892;SDS011;6514;48.606;9.222;2023-05-29T04:03:07;8.57;;;5.60;;
12892;SDS011;6514;48.606;9.222;2023-05-29T04:05:36;7.50;;;5.27;;
12892;SDS011;6514;48.606;9.222;2023-05-29T04:08:03;6.37;;;5.00;;
12892;SDS011;6514;48.606;9.222;2023-05-29T04:10:30;5.70;;;4.53;;
12892;SDS011;6514;48.606;9.222;2023-05-29T04:12:58;8.27;;;5.47;;
12892;SDS011;6514;48.606;9.222;2023-05-29T04:15:26;7.90;;;4.70;;
12892;SDS011;6514;48.606;9.222;2023-05-29T04:17:53;8.23;;;5.03;;
12892;SDS011;6514;48.606;9.222;2023-05-29T04:20:21;6.60;;;4.70;;
12892;SDS011;6514;48.606;9.222;2023-05-29T04:22:48;8.43;;;4.30;;
12892;SDS011;6514;48.606;9.222;2023-05-29T04:25:15;6.50;;;4.70;;
12892;SDS011;6514;48.606;9.222;2023-05-29T04:27:43;8.70;;;4.50;;
12892;SDS011;6514;48.606;9.222;2023-05-29T04:30:14;6.57;;;4.67;;
12892;SDS011;6514;48.606;9.222;2023-05-29T04:32:42;6.60;;;4.63;;
12892;SDS011;6514;48.606;9.222;2023-05-29T04:35:09;6.37;;;4.17;;
12892;SDS011;6514;48.606;9.222;2023-05-29T04:37:38;7.57;;;5.10;;
12892;SDS011;6514;48.606;9.222;2023-05-29T04:40:05;7.23;;;5.07;;
12892;SDS011;6514;48.606;9.222;2023-05-29T04:42:35;5.70;;;4.20;;
12892;SDS011;6514;48.606;9.222;2023-05-29T04:45:02;9.83;;;5.03;;
12892;SDS011;6514;48.606;9.222;2023-05-29T04:47:30;7.27;;;4.40;;
12892;SDS011;6514;48.606;9.222;2023-05-29T04:49:58;6.40;;;4.43;;
12892;SDS011;6514;48.606;9.222;2023-05-29T04:52:25;5.97;;;4.90;;
12892;SDS011;6514;48.606;9.222;2023-05-29T04:54:53;6.50;;;4.70;;
12892;SDS011;6514;48.606;9.222;2023-05-29T04:57:21;6.30;;;4.80;;
12892;SDS011;6514;48.606;9.222;2023-05-29T04:59:48;8.03;;;4.80;;
12892;SDS011;6514;48.606;9.222;2023-05-29T05:02:15;5.70;;;4.40;;
12892;SDS011;6514;48.606;9.222;2023-05-29T05:04:42;7.30;;;5.03;;
12892;SDS011;6514;48.606;9.222;2023-05-29T05:07:10;6.27;;;4.83;;
12892;SDS011;6514;48.606;9.222;2023-05-29T05:09:38;7.47;;;4.87;;
12892;SDS011;6514;48.606;9.222;2023-05-29T05:12:06;7.00;;;4.60;;
12892;SDS011;6514;48.606;9.222;2023-05-29T05:14:34;7.27;;;4.90;;
12892;SDS011;6514;48.606;9.222;2023-05-29T05:17:00;6.20;;;4.80;;
12892;SDS011;6514;48.606;9.222;2023-05-29T05:19:28;6.33;;;4.40;;
12892;SDS011;6514;48.606;9.222;2023-05-29T05:21:55;5.30;;;4.63;;
12892;SDS011;6514;48.606;9.222;2023-05-29T05:24:22;6.57;;;4.60;;
12892;SDS011;6514;48.606;9.222;2023-05-29T05:26:49;8.83;;;4.73;;
12892;SDS011;6514;48.606;9.222;2023-05-29T05:29:17;6.97;;;5.00;;
12892;SDS011;6514;48.606;9.222;2023-05-29T05:31:44;6.23;;;4.60;;
12892;SDS011;6514;48.606;9.222;2023-05-29T05:34:11;6.43;;;3.83;;
12892;SDS011;6514;48.606;9.222;2023-05-29T05:36:38;6.03;;;4.47;;
12892;SDS011;6514;48.606;9.222;2023-05-29T05:39:05;5.07;;;4.07;;
12892;SDS011;6514;48.606;9.222;2023-05-29T05:41:32;6.50;;;4.13;;
12892;SDS011;6514;48.606;9.222;2023-05-29T05:43:59;8.10;;;4.70;;
12892;SDS011;6514;48.606;9.222;2023-05-29T05:46:27;6.03;;;4.30;;
12892;SDS011;6514;48.606;9.222;2023-05-29T05:48:54;10.40;;;4.40;;
12892;SDS011;6514;48.606;9.222;2023-05-29T05:51:22;5.43;;;3.93;;
12892;SDS011;6514;48.606;9.222;2023-05-29T05:53:49;6.10;;;4.73;;
12892;SDS011;6514;48.606;9.222;2023-05-29T05:56:17;6.17;;;3.93;;
12892;SDS011;6514;48.606;9.222;2023-05-29T05:58:43;6.60;;;4.10;;
12892;SDS011;6514;48.606;9.222;2023-05-29T06:01:10;6.27;;;3.97;;
12892;SDS011;6514;48.606;9.222;2023-05-29T06:03:39;8.23;;;4.00;;
12892;SDS011;6514;48.606;9.222;2023-05-29T06:06:06;9.17;;;4.73;;
12892;SDS011;6514;48.606;9.222;2023-05-29T06:08:33;6.77;;;4.83;;
12892;SDS011;6514;48.606;9.222;2023-05-29T06:11:00;7.77;;;4.53;;
12892;SDS011;6514;48.606;9.222;2023-05-29T06:13:27;5.97;;;4.33;;
12892;SDS011;6514;48.606;9.222;2023-05-29T06:15:54;6.97;;;4.50;;
12892;SDS011;6514;48.606;9.222;2023-05-29T06:18:21;7.53;;;4.50;;
12892;SDS011;6514;48.606;9.222;2023-05-29T06:20:49;5.00;;;4.13;;
12892;SDS011;6514;48.606;9.222;2023-05-29T06:23:16;8.00;;;4.60;;
12892;SDS011;6514;48.606;9.222;2023-05-29T06:25:44;6.13;;;4.20;;
12892;SDS011;6514;48.606;9.222;2023-05-29T06:28:11;6.37;;;4.27;;
12892;SDS011;6514;48.606;9.222;2023-05-29T06:30:38;6.13;;;4.30;;
12892;SDS011;6514;48.606;9.222;2023-05-29T06:33:05;6.63;;;4.43;;
12892;SDS011;6514;48.606;9.222;2023-05-29T06:35:32;6.20;;;4.30;;
12892;SDS011;6514;48.606;9.222;2023-05-29T06:38:00;6.17;;;4.20;;
12892;SDS011;6514;48.606;9.222;2023-05-29T06:40:27;5.80;;;3.93;;
12892;SDS011;6514;48.606;9.222;2023-05-29T06:42:54;5.73;;;3.87;;
12892;SDS011;6514;48.606;9.222;2023-05-29T06:45:21;5.50;;;4.27;;
12892;SDS011;6514;48.606;9.222;2023-05-29T06:47:48;6.30;;;4.20;;
12892;SDS011;6514;48.606;9.222;2023-05-29T06:50:15;6.80;;;4.53;;
12892;SDS011;6514;48.606;9.222;2023-05-29T06:52:42;9.23;;;4.87;;
12892;SDS011;6514;48.606;9.222;2023-05-29T06:55:10;7.13;;;4.67;;
12892;SDS011;6514;48.606;9.222;2023-05-29T06:57:37;8.63;;;4.30;;
12892;SDS011;6514;48.606;9.222;2023-05-29T07:00:04;6.57;;;4.60;;
12892;SDS011;6514;48.606;9.222;2023-05-29T07:02:32;6.10;;;4.20;;
12892;SDS011;6514;48.606;9.222;2023-05-29T07:04:59;5.20;;;4.70;;
12892;SDS011;6514;48.606;9.222;2023-05-29T07:07:26;8.03;;;4.60;;
12892;SDS011;6514;48.606;9.222;2023-05-29T07:09:53;7.30;;;4.57;;
12892;SDS011;6514;48.606;9.222;2023-05-29T07:12:21;5.53;;;4.80;;
12892;SDS011;6514;48.606;9.222;2023-05-29T07:14:49;6.10;;;4.50;;
12892;SDS011;6514;48.606;9.222;2023-05-29T07:17:15;4.87;;;4.37;;
12892;SDS011;6514;48.606;9.222;2023-05-29T07:19:42;6.83;;;4.77;;
12892;SDS011;6514;48.606;9.222;2023-05-29T07:22:09;5.87;;;4.40;;
12892;SDS011;6514;48.606;9.222;2023-05-29T07:24:36;6.30;;;4.60;;
12892;SDS011;6514;48.606;9.222;2023-05-29T07:27:03;7.50;;;4.20;;
12892;SDS011;6514;48.606;9.222;2023-05-29T07:29:32;7.00;;;5.17;;
12892;SDS011;6514;48.606;9.222;2023-05-29T07:31:59;7.30;;;4.40;;
12892;SDS011;6514;48.606;9.222;2023-05-29T07:34:26;6.93;;;4.37;;
12892;SDS011;6514;48.606;9.222;2023-05-29T07:36:56;7.17;;;4.70;;
12892;SDS011;6514;48.606;9.222;2023-05-29T07:39:25;5.13;;;4.23;;
12892;SDS011;6514;48.606;9.222;2023-05-29T07:41:52;6.60;;;4.13;;
12892;SDS011;6514;48.606;9.222;2023-05-29T07:44:19;6.90;;;5.53;;
12892;SDS011;6514;48.606;9.222;2023-05-29T07:46:47;8.53;;;5.07;;
12892;SDS011;6514;48.606;9.222;2023-05-29T07:49:14;6.23;;;4.33;;
12892;SDS011;6514;48.606;9.222;2023-05-29T07:51:41;6.27;;;4.20;;
12892;SDS011;6514;48.606;9.222;2023-05-29T07:54:08;8.53;;;4.43;;
12892;SDS011;6514;48.606;9.222;2023-05-29T07:56:35;5.70;;;4.53;;
12892;SDS011;6514;48.606;9.222;2023-05-29T07:59:02;5.33;;;3.90;;
12892;SDS011;6514;48.606;9.222;2023-05-29T08:01:29;5.30;;;4.60;;
12892;SDS011;6514;48.606;9.222;2023-05-29T08:03:57;7.63;;;4.23;;
12892;SDS011;6514;48.606;9.222;2023-05-29T08:06:24;5.53;;;4.40;;
12892;SDS011;6514;48.606;9.222;2023-05-29T08:08:51;6.27;;;4.40;;
12892;SDS011;6514;48.606;9.222;2023-05-29T08:11:18;6.80;;;4.27;;
12892;SDS011;6514;48.606;9.222;2023-05-29T08:13:45;7.33;;;4.80;;
12892;SDS011;6514;48.606;9.222;2023-05-29T08:16:12;4.60;;;4.20;;
12892;SDS011;6514;48.606;9.222;2023-05-29T08:18:41;4.97;;;4.47;;
12892;SDS011;6514;48.606;9.222;2023-05-29T08:21:10;6.70;;;4.70;;
12892;SDS011;6514;48.606;9.222;2023-05-29T08:23:37;8.50;;;4.80;;
12892;SDS011;6514;48.606;9.222;2023-05-29T08:26:04;5.80;;;4.47;;
12892;SDS011;6514;48.606;9.222;2023-05-29T08:28:31;7.37;;;4.50;;
12892;SDS011;6514;48.606;9.222;2023-05-29T08:30:58;6.67;;;4.43;;
12892;SDS011;6514;48.606;9.222;2023-05-29T08:33:26;6.20;;;4.40;;
12892;SDS011;6514;48.606;9.222;2023-05-29T08:35:53;6.07;;;4.30;;
12892;SDS011;6514;48.606;9.222;2023-05-29T08:38:21;6.07;;;4.43;;
12892;SDS011;6514;48.606;9.222;2023-05-29T08:40:50;5.63;;;4.40;;
12892;SDS011;6514;48.606;9.222;2023-05-29T08:43:18;5.80;;;4.53;;
12892;SDS011;6514;48.606;9.222;2023-05-29T08:45:51;8.07;;;4.70;;
12892;SDS011;6514;48.606;9.222;2023-05-29T08:48:22;5.27;;;4.07;;
12892;SDS011;6514;48.606;9.222;2023-05-29T08:50:52;6.60;;;4.30;;
12892;SDS011;6514;48.606;9.222;2023-05-29T08:53:21;5.07;;;4.37;;
12892;SDS011;6514;48.606;9.222;2023-05-29T08:55:49;6.73;;;4.40;;
12892;SDS011;6514;48.606;9.222;2023-05-29T08:58:17;7.23;;;4.57;;
12892;SDS011;6514;48.606;9.222;2023-05-29T09:00:45;5.67;;;4.30;;
12892;SDS011;6514;48.606;9.222;2023-05-29T09:03:13;5.80;;;4.63;;
12892;SDS011;6514;48.606;9.222;2023-05-29T09:05:41;6.53;;;4.57;;
12892;SDS011;6514;48.606;9.222;2023-05-29T09:08:08;4.40;;;3.90;;
12892;SDS011;6514;48.606;9.222;2023-05-29T09:10:38;6.77;;;4.70;;
12892;SDS011;6514;48.606;9.222;2023-05-29T09:13:06;6.53;;;4.50;;
12892;SDS011;6514;48.606;9.222;2023-05-29T09:15:35;5.13;;;4.40;;
12892;SDS011;6514;48.606;9.222;2023-05-29T09:18:05;5.07;;;4.30;;
12892;SDS011;6514;48.606;9.222;2023-05-29T09:20:32;6.10;;;4.47;;
12892;SDS011;6514;48.606;9.222;2023-05-29T09:23:00;6.33;;;4.60;;
12892;SDS011;6514;48.606;9.222;2023-05-29T09:25:29;6.63;;;4.67;;
12892;SDS011;6514;48.606;9.222;2023-05-29T09:27:59;6.27;;;4.20;;
12892;SDS011;6514;48.606;9.222;2023-05-29T09:30:31;5.30;;;4.30;;
12892;SDS011;6514;48.606;9.222;2023-05-29T09:33:00;4.83;;;4.27;;
12892;SDS011;6514;48.606;9.222;2023-05-29T09:35:31;5.57;;;4.70;;
12892;SDS011;6514;48.606;9.222;2023-05-29T09:37:59;4.60;;;4.10;;
12892;SDS011;6514;48.606;9.222;2023-05-29T09:40:26;4.63;;;4.07;;
12892;SDS011;6514;48.606;9.222;2023-05-29T09:42:55;4.73;;;3.80;;
12892;SDS011;6514;48.606;9.222;2023-05-29T09:45:24;4.70;;;3.90;;
12892;SDS011;6514;48.606;9.222;2023-05-29T09:47:52;7.53;;;4.13;;
12892;SDS011;6514;48.606;9.222;2023-05-29T09:50:19;5.77;;;4.40;;
12892;SDS011;6514;48.606;9.222;2023-05-29T09:52:51;4.40;;;3.73;;
12892;SDS011;6514;48.606;9.222;2023-05-29T09:55:18;4.43;;;3.83;;
12892;SDS011;6514;48.606;9.222;2023-05-29T09:57:46;4.57;;;4.13;;
12892;SDS011;6514;48.606;9.222;2023-05-29T10:00:14;5.27;;;4.20;;
12892;SDS011;6514;48.606;9.222;2023-05-29T10:02:44;5.77;;;4.00;;
12892;SDS011;6514;48.606;9.222;2023-05-29T10:05:11;5.27;;;4.07;;
12892;SDS011;6514;48.606;9.222;2023-05-29T10:07:42;7.37;;;3.80;;
12892;SDS011;6514;48.606;9.222;2023-05-29T10:10:11;5.17;;;3.50;;
12892;SDS011;6514;48.606;9.222;2023-05-29T10:12:40;3.40;;;3.10;;
12892;SDS011;6514;48.606;9.222;2023-05-29T10:15:11;4.87;;;3.50;;
12892;SDS011;6514;48.606;9.222;2023-05-29T10:17:39;4.80;;;3.13;;
12892;SDS011;6514;48.606;9.222;2023-05-29T10:20:15;6.17;;;3.17;;
12892;SDS011;6514;48.606;9.222;2023-05-29T10:22:45;5.73;;;3.40;;
12892;SDS011;6514;48.606;9.222;2023-05-29T10:25:13;4.03;;;3.37;;
12892;SDS011;6514;48.606;9.222;2023-05-29T10:27:41;4.73;;;3.70;;
12892;SDS011;6514;48.606;9.222;2023-05-29T10:30:10;3.33;;;2.93;;
12892;SDS011;6514;48.606;9.222;2023-05-29T10:32:51;6.80;;;3.90;;
12892;SDS011;6514;48.606;9.222;2023-05-29T10:35:31;3.90;;;3.23;;
12892;SDS011;6514;48.606;9.222;2023-05-29T10:38:10;4.23;;;3.23;;
12892;SDS011;6514;48.606;9.222;2023-05-29T10:40:38;4.73;;;3.80;;
12892;SDS011;6514;48.606;9.222;2023-05-29T10:43:05;4.00;;;3.23;;
12892;SDS011;6514;48.606;9.222;2023-05-29T10:48:40;5.70;;;3.43;;
12892;SDS011;6514;48.606;9.222;2023-05-29T10:51:10;5.40;;;4.43;;
12892;SDS011;6514;48.606;9.222;2023-05-29T10:53:51;7.60;;;3.50;;
12892;SDS011;6514;48.606;9.222;2023-05-29T10:56:21;5.87;;;3.90;;
12892;SDS011;6514;48.606;9.222;2023-05-29T10:58:53;4.23;;;3.47;;
12892;SDS011;6514;48.606;9.222;2023-05-29T11:01:21;5.97;;;3.53;;
12892;SDS011;6514;48.606;9.222;2023-05-29T11:03:51;6.67;;;3.60;;
12892;SDS011;6514;48.606;9.222;2023-05-29T11:06:19;5.87;;;3.33;;
12892;SDS011;6514;48.606;9.222;2023-05-29T11:08:52;5.40;;;3.40;;
12892;SDS011;6514;48.606;9.222;2023-05-29T11:11:28;8.57;;;3.30;;
12892;SDS011;6514;48.606;9.222;2023-05-29T11:13:56;3.70;;;3.07;;
12892;SDS011;6514;48.606;9.222;2023-05-29T11:16:36;4.50;;;3.10;;
12892;SDS011;6514;48.606;9.222;2023-05-29T11:19:05;3.60;;;3.07;;
12892;SDS011;6514;48.606;9.222;2023-05-29T11:21:38;4.20;;;3.33;;
12892;SDS011;6514;48.606;9.222;2023-05-29T11:24:18;4.27;;;3.23;;
12892;SDS011;6514;48.606;9.222;2023-05-29T11:26:48;5.27;;;3.53;;
12892;SDS011;6514;48.606;9.222;2023-05-29T11:29:20;6.43;;;3.60;;
12892;SDS011;6514;48.606;9.222;2023-05-29T11:31:49;4.10;;;3.10;;
12892;SDS011;6514;48.606;9.222;2023-05-29T11:34:23;4.03;;;3.17;;
12892;SDS011;6514;48.606;9.222;2023-05-29T11:36:52;3.83;;;3.20;;
12892;SDS011;6514;48.606;9.222;2023-05-29T11:39:19;4.87;;;3.13;;
12892;SDS011;6514;48.606;9.222;2023-05-29T11:41:49;4.20;;;3.10;;
12892;SDS011;6514;48.606;9.222;2023-05-29T11:44:17;5.70;;;3.43;;
12892;SDS011;6514;48.606;9.222;2023-05-29T11:46:44;3.90;;;2.80;;
12892;SDS011;6514;48.606;9.222;2023-05-29T11:49:11;4.67;;;3.00;;
12892;SDS011;6514;48.606;9.222;2023-05-29T11:51:40;5.07;;;3.60;;
12892;SDS011;6514;48.606;9.222;2023-05-29T11:54:08;6.47;;;3.13;;
12892;SDS011;6514;48.606;9.222;2023-05-29T11:56:37;3.57;;;3.27;;
12892;SDS011;6514;48.606;9.222;2023-05-29T11:59:06;4.87;;;3.03;;
12892;SDS011;6514;48.606;9.222;2023-05-29T12:01:37;5.63;;;2.80;;
12892;SDS011;6514;48.606;9.222;2023-05-29T12:04:13;4.67;;;2.80;;
12892;SDS011;6514;48.606;9.222;2023-05-29T12:06:42;4.23;;;2.90;;
12892;SDS011;6514;48.606;9.222;2023-05-29T12:09:09;4.20;;;3.17;;
12892;SDS011;6514;48.606;9.222;2023-05-29T12:11:50;5.47;;;3.03;;
12892;SDS011;6514;48.606;9.222;2023-05-29T12:14:17;4.70;;;3.33;;
12892;SDS011;6514;48.606;9.222;2023-05-29T12:16:44;5.60;;;3.30;;
12892;SDS011;6514;48.606;9.222;2023-05-29T12:19:11;4.47;;;3.10;;
12892;SDS011;6514;48.606;9.222;2023-05-29T12:21:42;4.17;;;2.90;;
12892;SDS011;6514;48.606;9.222;2023-05-29T12:24:09;5.60;;;3.07;;
12892;SDS011;6514;48.606;9.222;2023-05-29T12:26:36;6.40;;;3.27;;
12892;SDS011;6514;48.606;9.222;2023-05-29T12:29:03;3.40;;;3.10;;
12892;SDS011;6514;48.606;9.222;2023-05-29T12:31:31;4.77;;;3.20;;
12892;SDS011;6514;48.606;9.222;2023-05-29T12:34:02;4.03;;;3.07;;
12892;SDS011;6514;48.606;9.222;2023-05-29T12:36:33;6.07;;;2.47;;
12892;SDS011;6514;48.606;9.222;2023-05-29T12:39:04;3.83;;;2.83;;
12892;SDS011;6514;48.606;9.222;2023-05-29T12:41:33;4.67;;;3.10;;
12892;SDS011;6514;48.606;9.222;2023-05-29T12:44:02;3.93;;;2.80;;
12892;SDS011;6514;48.606;9.222;2023-05-29T12:46:34;3.80;;;2.70;;
12892;SDS011;6514;48.606;9.222;2023-05-29T12:49:11;2.93;;;2.63;;
12892;SDS011;6514;48.606;9.222;2023-05-29T12:51:39;4.07;;;3.33;;
12892;SDS011;6514;48.606;9.222;2023-05-29T12:54:08;5.03;;;2.43;;
12892;SDS011;6514;48.606;9.222;2023-05-29T12:56:36;4.77;;;2.53;;
12892;SDS011;6514;48.606;9.222;2023-05-29T12:59:05;3.90;;;3.00;;
12892;SDS011;6514;48.606;9.222;2023-05-29T13:01:32;5.00;;;2.90;;
12892;SDS011;6514;48.606;9.222;2023-05-29T13:03:59;4.63;;;3.07;;
12892;SDS011;6514;48.606;9.222;2023-05-29T13:06:25;3.80;;;2.83;;
12892;SDS011;6514;48.606;9.222;2023-05-29T13:08:52;4.07;;;3.17;;
12892;SDS011;6514;48.606;9.222;2023-05-29T13:11:21;3.70;;;3.27;;
12892;SDS011;6514;48.606;9.222;2023-05-29T13:13:48;3.80;;;2.97;;
12892;SDS011;6514;48.606;9.222;2023-05-29T13:16:15;4.37;;;3.13;;
12892;SDS011;6514;48.606;9.222;2023-05-29T13:18:42;4.30;;;2.63;;
12892;SDS011;6514;48.606;9.222;2023-05-29T13:21:09;4.00;;;3.57;;
12892;SDS011;6514;48.606;9.222;2023-05-29T13:23:36;3.80;;;3.20;;
12892;SDS011;6514;48.606;9.222;2023-05-29T13:26:03;3.93;;;2.97;;
12892;SDS011;6514;48.606;9.222;2023-05-29T13:28:32;5.67;;;3.30;;
12892;SDS011;6514;48.606;9.222;2023-05-29T13:30:59;4.43;;;2.90;;
12892;SDS011;6514;48.606;9.222;2023-05-29T13:33:26;4.97;;;3.30;;
12892;SDS011;6514;48.606;9.222;2023-05-29T13:35:53;3.20;;;2.90;;
12892;SDS011;6514;48.606;9.222;2023-05-29T13:38:20;4.47;;;3.03;;
12892;SDS011;6514;48.606;9.222;2023-05-29T13:40:47;3.33;;;2.80;;
12892;SDS011;6514;48.606;9.222;2023-05-29T13:43:14;5.63;;;3.13;;
12892;SDS011;6514;48.606;9.222;2023-05-29T13:45:42;3.30;;;3.00;;
12892;SDS011;6514;48.606;9.222;2023-05-29T13:48:09;4.60;;;3.07;;
12892;SDS011;6514;48.606;9.222;2023-05-29T13:50:36;4.10;;;3.20;;
12892;SDS011;6514;48.606;9.222;2023-05-29T13:53:03;4.50;;;3.13;;
12892;SDS011;6514;48.606;9.222;2023-05-29T13:55:30;4.53;;;3.13;;
12892;SDS011;6514;48.606;9.222;2023-05-29T13:57:57;3.90;;;3.20;;
12892;SDS011;6514;48.606;9.222;2023-05-29T14:00:24;4.30;;;3.30;;
12892;SDS011;6514;48.606;9.222;2023-05-29T14:02:52;4.30;;;3.30;;
12892;SDS011;6514;48.606;9.222;2023-05-29T14:05:19;4.77;;;3.30;;
12892;SDS011;6514;48.606;9.222;2023-05-29T14:07:45;3.93;;;3.17;;
12892;SDS011;6514;48.606;9.222;2023-05-29T14:10:12;3.90;;;3.50;;
12892;SDS011;6514;48.606;9.222;2023-05-29T14:12:39;3.83;;;3.00;;
12892;SDS011;6514;48.606;9.222;2023-05-29T14:15:07;4.57;;;3.17;;
12892;SDS011;6514;48.606;9.222;2023-05-29T14:17:35;4.20;;;3.27;;
12892;SDS011;6514;48.606;9.222;2023-05-29T14:20:03;4.47;;;3.50;;
12892;SDS011;6514;48.606;9.222;2023-05-29T14:22:33;4.90;;;3.60;;
12892;SDS011;6514;48.606;9.222;2023-05-29T14:25:02;3.47;;;2.93;;
12892;SDS011;6514;48.606;9.222;2023-05-29T14:27:29;4.13;;;3.10;;
12892;SDS011;6514;48.606;9.222;2023-05-29T14:29:56;4.20;;;3.80;;
12892;SDS011;6514;48.606;9.222;2023-05-29T14:32:23;4.87;;;3.00;;
12892;SDS011;6514;48.606;9.222;2023-05-29T14:34:50;4.30;;;3.30;;
12892;SDS011;6514;48.606;9.222;2023-05-29T14:37:18;3.57;;;3.27;;
12892;SDS011;6514;48.606;9.222;2023-05-29T14:39:46;4.00;;;3.27;;
12892;SDS011;6514;48.606;9.222;2023-05-29T14:42:12;5.93;;;3.63;;
12892;SDS011;6514;48.606;9.222;2023-05-29T14:44:40;5.57;;;3.50;;
12892;SDS011;6514;48.606;9.222;2023-05-29T14:47:07;5.37;;;3.27;;
12892;SDS011;6514;48.606;9.222;2023-05-29T14:49:35;5.23;;;3.50;;
12892;SDS011;6514;48.606;9.222;2023-05-29T14:52:03;3.70;;;3.30;;
12892;SDS011;6514;48.606;9.222;2023-05-29T14:54:32;3.93;;;3.20;;
12892;SDS011;6514;48.606;9.222;2023-05-29T14:56:58;5.33;;;3.30;;
12892;SDS011;6514;48.606;9.222;2023-05-29T14:59:25;4.67;;;3.70;;
12892;SDS011;6514;48.606;9.222;2023-05-29T15:01:52;4.70;;;3.40;;
12892;SDS011;6514;48.606;9.222;2023-05-29T15:04:19;5.60;;;3.63;;
12892;SDS011;6514;48.606;9.222;2023-05-29T15:06:46;5.23;;;3.70;;
12892;SDS011;6514;48.606;9.222;2023-05-29T15:09:13;3.87;;;3.30;;